Tiempo atmosférico en la estación meteorológica de Binissalem, Illes Balears (105 m.)

Fecha
DESCASC
Temp. máxima en grados centígrados (hora)
DESCASC
Temp. mínima en grados centígrados (hora)
DESCASC
Temp. media en grados centígrados
DESCASC
Racha de viento máxima en m/sg (hora)
DESCASC
Velocidad máxima media en intervalos de 10 minutos(hora)
DESCASC
Precipitaciones diarias en mm
DESCASC
Precipitaciones de 00:00 a 06:00 en mm
DESCASC
Precipitaciones de 06:00 a 12:00 en mm
DESCASC
Precipitaciones de 12:00 a 18:00 en mm
DESCASC
Precipitaciones de 18:00 a 24:00 en mm
DESCASC
17-08-2017 34.6 (14:50) 21 (07:00) 27.8 8.33 (17:10) 3.89 (09:40) 0 0 0 0 0
16-08-2017 35.8 (15:40) 21.4 (05:00) 28.6 6.67 (09:30) 4.17 (17:50) 0 0 0 0 0
15-08-2017 34.7 (15:10) 20.5 (00:00) 27.6 8.06 (16:30) 4.44 (17:20) 0 0 0 0 0
14-08-2017 32.6 (16:10) 16.1 (07:20) 24.3 9.44 (14:20) 4.72 (16:50) 0 0 0 0 0
13-08-2017 30.9 (16:20) 16.3 (00:00) 23.6 7.22 (13:00) 3.89 (17:40) 0 0 0 0 0
12-08-2017 28.5 (13:50) 18.1 (00:00) 23.3 7.5 (15:20) 4.17 (14:40) 0 0 0 0 0
11-08-2017 28.3 (16:50) 17.3 (00:00) 22.8 8.06 (17:30) 5 (12:50) 0 0 0 0 0
10-08-2017 25.4 (16:50) 18.6 (00:00) 22 12.78 (02:00) 8.33 (02:40) 6 2.2 3.8 0 0
09-08-2017 29.5 (14:00) 21.8 (00:00) 25.6 10.83 (15:40) 6.39 (00:30) 0 0 0 0 0
08-08-2017 35 (13:50) 24.2 (00:00) 29.6 12.78 (22:30) 7.22 (20:20) 0 0 0 0 0
07-08-2017 34.7 (14:50) 20.4 (00:00) 27.6 9.72 (17:00) 6.11 (17:10) 0 0 0 0 0
06-08-2017 32.5 (16:10) 23.9 (00:00) 28.2 11.67 (07:30) 7.5 (10:40) 0 0 0 0 0
05-08-2017 37.2 (16:30) 21.9 (00:00) 29.6 10.56 (17:50) 5.56 (12:10) 0 0 0 0 0
04-08-2017 36.5 (13:10) 21.9 (00:00) 29.2 9.72 (15:30) 5.28 (15:50) 0 0 0 0 0
03-08-2017 40.6 (15:50) 27.4 (00:00) 34 16.39 (02:10) 7.5 (03:30) 0 0 0 0 0
02-08-2017 39.8 (15:40) 25.6 (00:00) 32.7 9.17 (11:20) 5 (11:20) 0 0 0 0 0
01-08-2017 36.8 (19:10) 25.8 (00:00) 31.3 13.33 (14:30) 9.17 (14:40) 0.2 0 0 0 0.2
31-07-2017 38.5 (15:10) 21 (00:00) 29.8 8.06 (14:40) 3.89 (15:30) 0 0 0 0 0
30-07-2017 38.9 (16:00) 18.6 (00:00) 28.8 7.5 (16:10) 5 (17:10) 0 0 0 0 0
29-07-2017 36.7 (15:50) 18.6 (00:00) 27.7 8.61 (17:50) 6.11 (17:50) 0 0 0 0 0
28-07-2017 36.2 (15:40) 18.9 (00:00) 27.6 8.61 (13:30) 5 (16:50) 0 0 0 0 0
27-07-2017 31.4 (15:40) 17.2 (00:00) 24.3 12.5 (17:30) 7.22 (16:20) 0 0 0 0 0
26-07-2017 29.7 (15:00) 19.8 (00:00) 24.8 8.89 (12:30) 5.56 (12:20) 0 0 0 0 0
25-07-2017 28.3 (14:30) 20.8 (00:00) 24.5 9.72 (12:20) 5 (13:10) 0 0 0 0 0
24-07-2017 32.5 (17:10) 20.9 (00:00) 26.7 8.61 (14:40) 5.28 (19:20) 0 0 0 0 0
23-07-2017 30.5 (15:40) 19.3 (00:00) 24.9 8.89 (10:50) 5 (10:50) 0 0 0 0 0
22-07-2017 32.9 (13:50) 21.3 (00:00) 27.1 8.61 (16:10) 5.83 (16:10) 0 0 0 0 0

Gráficas

Temp. máximas Temp. mínimas Temp. medias Precipitaciones Rachas de viento máximas Velocidades máximas media en intervalos de 10 minutos

Datos horarios

Fecha y hora oficial Temperatura (ºC) Velocidad del viento (km/h) Dirección del viento Racha (km/h) Dirección de racha Precipitación (mm) Presión (hPa) Tendencia (hPa) Humedad (%)
2017-08-20 23:00:00 22.4 6 Norte 9 Norte 0 -- -- 62
2017-08-20 22:00:00 23.3 4 Nordeste 15 Este 0 -- -- 59
2017-08-20 21:00:00 24.6 8 Este 15 Este 0 -- -- 53
2017-08-20 20:00:00 26.8 7 Nordeste 17 Nordeste 0 -- -- 48
2017-08-20 19:00:00 28 9 Nordeste 23 Nordeste 0 -- -- 46
2017-08-20 18:00:00 28.3 12 Nordeste 30 Nordeste 0 -- -- 47
2017-08-20 17:00:00 28.7 9 Nordeste 26 Nordeste 0 -- -- 45
2017-08-20 16:00:00 28.9 14 Este 30 Nordeste 0 -- -- 45
2017-08-20 15:00:00 28.9 14 Este 36 Este 0 -- -- 45
2017-08-20 14:00:00 28.5 18 Este 36 Este 0 -- -- 50
2017-08-20 13:00:00 28.5 17 Este 35 Este 0 -- -- 50
2017-08-20 12:00:00 27.8 16 Este 33 Este 0 -- -- 52
2017-08-20 11:00:00 27.2 16 Este 30 Este 0 -- -- 52
2017-08-20 10:00:00 26 15 Nordeste 26 Este 0 -- -- 56
2017-08-20 09:00:00 24.1 10 Nordeste 17 Nordeste 0 -- -- 70
2017-08-20 08:00:00 20.1 0 Calma 4 Sur 0 -- -- 85
2017-08-20 07:00:00 19.8 3 Este 8 Nordeste 0 -- -- 84
2017-08-20 06:00:00 19.6 4 Este 6 Nordeste 0 -- -- 84
2017-08-20 05:00:00 19.9 2 Este 4 Este 0 -- -- 81
2017-08-20 04:00:00 20.6 4 Este 6 Este 0 -- -- 80
2017-08-20 03:00:00 21.4 2 Este 9 Norte 0 -- -- 79
2017-08-20 02:00:00 22 5 Norte 12 Norte 0 -- -- 79
2017-08-20 01:00:00 22.7 8 Nordeste 12 Nordeste 0 -- -- 78
2017-08-20 00:00:00 22.9 6 Nordeste 10 Nordeste 0 -- -- 76
2017-08-19 23:00:00 23.4 5 Nordeste 12 Nordeste 0 -- -- 72
2017-08-19 22:00:00 23.9 7 Nordeste 21 Este 0 -- -- 70
2017-08-19 21:00:00 24.6 10 Este 25 Nordeste 0 -- -- 66
2017-08-19 20:00:00 26.5 13 Este 23 Este 0 -- -- 58
2017-08-19 19:00:00 28.3 11 Nordeste 21 Nordeste 0 -- -- 52
2017-08-19 18:00:00 28.9 12 Nordeste 27 Este 0 -- -- 51
2017-08-19 17:00:00 29.3 16 Nordeste 33 Este 0 -- -- 49
2017-08-19 16:00:00 28.5 17 Este 35 Este 0 -- -- 53
2017-08-19 15:00:00 29.2 18 Nordeste 33 Nordeste 0 -- -- 50
2017-08-19 14:00:00 30.1 18 Este 35 Este 0 -- -- 46
2017-08-19 13:00:00 29.7 17 Este 42 Nordeste 0 -- -- 47
2017-08-19 12:00:00 29.6 22 Este 39 Este 0 -- -- 49
2017-08-19 11:00:00 28.8 22 Nordeste 38 Este 0 -- -- 53
2017-08-19 10:00:00 27 23 Nordeste 36 Nordeste 0 -- -- 65
2017-08-19 09:00:00 25.9 22 Nordeste 35 Nordeste 0 -- -- 68
2017-08-19 08:00:00 24.4 20 Nordeste 31 Nordeste 0 -- -- 77
2017-08-19 07:00:00 23.9 15 Nordeste 24 Nordeste 0 -- -- 78
2017-08-19 06:00:00 24.4 15 Nordeste 29 Nordeste 0 -- -- 80
2017-08-19 05:00:00 23.9 12 Nordeste 19 Nordeste 0 -- -- 85
2017-08-19 04:00:00 21.2 3 Nordeste 5 Nordeste 0 -- -- 76
2017-08-19 03:00:00 21.8 0 Calma 8 Nordeste 0 -- -- 76
2017-08-19 02:00:00 22.3 5 Nordeste 8 Norte 0 -- -- 75
2017-08-19 01:00:00 23.5 2 Sur 10 Sudoeste 0 -- -- 70
2017-08-19 00:00:00 24.7 3 Sudoeste 11 Oeste 0 -- -- 68
2017-08-18 23:00:00 25.6 6 Sudoeste 10 Oeste 0 -- -- 67
2017-08-18 22:00:00 26.8 6 Sudoeste 15 Oeste 0 -- -- 56
2017-08-18 21:00:00 28.8 10 Sudoeste 15 Oeste 0 -- -- 46
2017-08-18 20:00:00 31.8 11 Oeste 19 Sudoeste 0 -- -- 39
2017-08-18 19:00:00 33.5 12 Sur 20 Sudoeste 0 -- -- 36
2017-08-18 18:00:00 33.7 10 Oeste 24 Oeste 0 -- -- 36
2017-08-18 17:00:00 33.9 11 Oeste 23 Sudoeste 0 -- -- 40
2017-08-18 16:00:00 33.7 15 Sudoeste 28 Sudoeste 0 -- -- 42
2017-08-18 15:00:00 33.8 21 Sudoeste 31 Sudoeste 0 -- -- 42
2017-08-18 14:00:00 34.6 13 Oeste 24 Oeste 0 -- -- 38
2017-08-18 13:00:00 34.1 7 Sur 20 Sur 0 -- -- 38
2017-08-18 12:00:00 32.5 6 Oeste 13 Oeste 0 -- -- 43
2017-08-18 11:00:00 31 5 Sudeste 11 Sur 0 -- -- 47
2017-08-18 10:00:00 28.8 5 Sudoeste 12 Sur 0 -- -- 54
2017-08-18 09:00:00 25 0 Calma 3 Sur 0 -- -- 67
2017-08-18 08:00:00 20.6 2 Sudoeste 4 Sudoeste 0 -- -- 81
2017-08-18 07:00:00 19.8 0 Calma 4 Sudoeste 0 -- -- 81
2017-08-18 06:00:00 20.2 3 Sudoeste 4 Oeste 0 -- -- 79
2017-08-18 05:00:00 20.6 3 Sudoeste -- -- 0 -- -- 79
2017-08-18 04:00:00 21.3 3 Oeste -- -- 0 -- -- 80
2017-08-18 03:00:00 22 4 Sudoeste 5 Noroeste 0 -- -- 81
2017-08-18 02:00:00 22.5 4 Noroeste 5 Noroeste 0 -- -- 79
2017-08-18 01:00:00 23.9 0 Calma 5 Nordeste 0 -- -- 81
2017-08-18 00:00:00 24.7 0 Calma 5 Este 0 -- -- 78
2017-08-17 23:00:00 25.6 4 Este 6 Este 0 -- -- 73
2017-08-17 22:00:00 26.5 3 Este 8 Este 0 -- -- 69
2017-08-17 21:00:00 28.1 5 Este 10 Este 0 -- -- 64
2017-08-17 20:00:00 30.7 8 Este 15 Nordeste 0 -- -- 53
2017-08-17 19:00:00 32.6 8 Este 19 Este 0 -- -- 46
2017-08-17 18:00:00 33.3 9 Este 30 Este 0 -- -- 44
2017-08-17 17:00:00 33.8 9 Este 22 Este 0 -- -- 44
2017-08-17 16:00:00 33.6 10 Este 23 Este 0 -- -- 44
2017-08-17 15:00:00 34.3 12 Este 26 Nordeste 0 -- -- 41
2017-08-17 14:00:00 33.7 9 Este 22 Este 0 -- -- 40
2017-08-17 13:00:00 32.7 9 Nordeste 20 Nordeste 0 -- -- 35
2017-08-17 12:00:00 32 10 Este 23 Nordeste 0 -- -- 37
2017-08-17 11:00:00 29.8 10 Nordeste 24 Este 0 -- -- 47
2017-08-17 10:00:00 28.5 11 Este 21 Nordeste 0 -- -- 55
2017-08-17 09:00:00 26.2 9 Nordeste 17 Nordeste 0 -- -- 63
2017-08-17 08:00:00 22.3 5 Nordeste 9 Nordeste 0 -- -- 89
2017-08-17 07:00:00 21 3 Norte 5 Nordeste 0 -- -- 84
2017-08-17 06:00:00 21.4 6 Nordeste 8 Nordeste 0 -- -- 83
2017-08-17 05:00:00 21.5 3 Norte 6 Norte 0 -- -- 84
2017-08-17 04:00:00 21.7 5 Nordeste 6 Nordeste 0 -- -- 84
2017-08-17 03:00:00 22.4 4 Norte 6 Noroeste 0 -- -- 86
2017-08-17 02:00:00 23.1 0 Calma 3 Sur 0 -- -- 84
2017-08-17 01:00:00 24.4 2 Nordeste 8 Nordeste 0 -- -- 83
2017-08-17 00:00:00 25.1 5 Nordeste 12 Nordeste 0 -- -- 82
2017-08-16 23:00:00 25.5 6 Este 12 Este 0 -- -- 79
2017-08-16 22:00:00 26.5 6 Este 16 Nordeste 0 -- -- 75
2017-08-16 21:00:00 27.8 9 Este 17 Este 0 -- -- 71
2017-08-16 20:00:00 31 10 Este 18 Nordeste 0 -- -- 58
2017-08-16 19:00:00 32.5 5 Sudeste 19 Oeste 0 -- -- 51
2017-08-16 18:00:00 33.1 14 Sudoeste 24 Sudoeste 0 -- -- 53
2017-08-16 17:00:00 34.8 4 Sur 19 Sur 0 -- -- 38
2017-08-16 16:00:00 35.8 8 Nordeste 21 Nordeste 0 -- -- 37
2017-08-16 15:00:00 35.2 13 Este 23 Este 0 -- -- 45
2017-08-16 14:00:00 34.8 9 Este 19 Este 0 -- -- 46
2017-08-16 13:00:00 32.9 6 Este 22 Este 0 -- -- 49
2017-08-16 12:00:00 31.5 12 Este 19 Este 0 -- -- 48
2017-08-16 11:00:00 29.5 12 Nordeste 22 Nordeste 0 -- -- 63
2017-08-16 10:00:00 27.4 10 Nordeste 24 Nordeste 0 -- -- 77
2017-08-16 09:00:00 25 13 Nordeste 23 Este 0 -- -- 89
2017-08-16 08:00:00 22.6 3 Nordeste 6 Nordeste 0 -- -- 91
2017-08-16 07:00:00 21.5 3 Nordeste 5 Norte 0 -- -- 90
2017-08-16 06:00:00 21.9 3 Nordeste 8 Norte 0 -- -- 88
2017-08-16 05:00:00 21.4 5 Norte 6 Norte 0 -- -- 84
2017-08-16 04:00:00 22.8 3 Norte 7 Nordeste 0 -- -- 88
2017-08-16 03:00:00 24 3 Norte 8 Nordeste 0 -- -- 89
2017-08-16 02:00:00 24.7 4 Nordeste 9 Este 0 -- -- 88
2017-08-16 01:00:00 25.3 5 Nordeste 17 Nordeste 0 -- -- 86
2017-08-16 00:00:00 25.7 8 Nordeste 14 Nordeste 0 -- -- 83
2017-08-15 23:00:00 26.3 6 Nordeste 10 Nordeste 0 -- -- 75
2017-08-15 22:00:00 27.2 3 Este 9 Este 0 -- -- 63
2017-08-15 21:00:00 28.8 6 Este 13 Este 0 -- -- 59
2017-08-15 20:00:00 30.7 10 Este 17 Este 0 -- -- 55
2017-08-15 19:00:00 32.6 11 Este 23 Este 0 -- -- 44
2017-08-15 18:00:00 32.8 13 Este 27 Este 0 -- -- 48
2017-08-15 17:00:00 33.8 12 Nordeste 29 Este 0 -- -- 49
2017-08-15 16:00:00 34.4 9 Este 24 Este 0 -- -- 47
2017-08-15 15:00:00 34.6 8 Sudeste 19 Este 0 -- -- 42
2017-08-15 14:00:00 32.9 8 Nordeste 21 Sudeste 0 -- -- 49
2017-08-15 13:00:00 31.5 10 Este 24 Este 0 -- -- 57
2017-08-15 12:00:00 30.1 9 Este 21 Este 0 -- -- 62
2017-08-15 11:00:00 28.1 6 Este 19 Este 0 -- -- 69
2017-08-15 10:00:00 26.8 10 Nordeste 22 Este 0 -- -- 73
2017-08-15 09:00:00 24.9 10 Nordeste 17 Nordeste 0 -- -- 77
2017-08-15 08:00:00 21.9 6 Nordeste 10 Nordeste 0 -- -- 87
2017-08-15 07:00:00 20.6 5 Nordeste 14 Este 0 -- -- 85
2017-08-15 06:00:00 20.9 8 Nordeste 13 Norte 0 -- -- 70
2017-08-15 05:00:00 22.3 4 Nordeste 12 Noroeste -- -- -- 73
2017-08-15 04:00:00 22.2 10 Norte 14 Norte 0 -- -- 80
2017-08-15 03:00:00 21.7 6 Noroeste 10 Norte 0 -- -- 85
2017-08-15 02:00:00 21.7 6 Norte 12 Norte 0 -- -- 82
2017-08-15 01:00:00 21.4 5 Norte 8 Noroeste 0 -- -- 81
2017-08-15 00:00:00 22.4 4 Norte 8 Nordeste 0 -- -- 77
2017-08-14 23:00:00 23.6 6 Este 14 Este 0 -- -- 72
2017-08-14 22:00:00 24.6 7 Nordeste 17 Nordeste 0 -- -- 68
2017-08-14 21:00:00 25.7 12 Este 22 Este 0 -- -- 63
2017-08-14 20:00:00 27.6 15 Este 26 Este 0 -- -- 50
2017-08-14 19:00:00 29.8 15 Este 24 Este 0 -- -- 46
2017-08-14 18:00:00 31.4 9 Este 27 Nordeste 0 -- -- 39
2017-08-14 17:00:00 32.2 14 Este 34 Este 0 -- -- 36
2017-08-14 16:00:00 32.3 12 Este 30 Este 0 -- -- 39
2017-08-14 15:00:00 31.4 16 Nordeste 34 Nordeste 0 -- -- 43
2017-08-14 14:00:00 31.3 14 Nordeste 26 Nordeste 0 -- -- 42
2017-08-14 13:00:00 30.8 13 Nordeste 24 Este 0 -- -- 45
2017-08-14 12:00:00 29 10 Nordeste 24 Este 0 -- -- 48
2017-08-14 11:00:00 27.9 9 Este 23 Este 0 -- -- 56
2017-08-14 10:00:00 26.4 10 Este 20 Nordeste 0 -- -- 57
2017-08-14 09:00:00 23.6 11 Nordeste 15 Nordeste 0 -- -- 66
2017-08-14 08:00:00 17.2 2 Oeste 5 Sudoeste 0 -- -- 83
2017-08-14 07:00:00 16.2 0 Calma 5 Noroeste 0 -- -- 80
2017-08-14 06:00:00 16.9 4 Norte 8 Noroeste 0 -- -- 80
2017-08-14 05:00:00 17.5 5 Noroeste 7 Norte 0 -- -- 85
2017-08-14 04:00:00 18.2 3 Sudoeste 5 Sudoeste 0 -- -- 81
2017-08-14 03:00:00 19.4 4 Norte 8 Norte 0 -- -- 79
2017-08-14 02:00:00 20 5 Norte 8 Norte 0 -- -- 77
2017-08-14 01:00:00 20.2 6 Norte 8 Noroeste 0 -- -- 76
2017-08-14 00:00:00 20.9 4 Noroeste 6 Norte 0 -- -- 75
2017-08-13 23:00:00 22.7 0 Calma 8 Este 0 -- -- 70
2017-08-13 22:00:00 23.6 5 Este 14 Nordeste 0 -- -- 67
2017-08-13 21:00:00 25 10 Nordeste 20 Nordeste 0 -- -- 61
2017-08-13 20:00:00 27.7 12 Nordeste 21 Este 0 -- -- 49
2017-08-13 19:00:00 29.1 11 Nordeste 21 Este 0 -- -- 42
2017-08-13 18:00:00 29.9 12 Nordeste 26 Este 0 -- -- 40
2017-08-13 17:00:00 30.5 10 Nordeste 25 Este 0 -- -- 37
2017-08-13 16:00:00 30.7 12 Este 26 Este 0 -- -- 39
2017-08-13 15:00:00 30.3 9 Sudeste 26 Este 0 -- -- 39
2017-08-13 14:00:00 29.9 9 Sudeste 23 Este 0 -- -- 41
2017-08-13 13:00:00 29 13 Este 26 Este 0 -- -- 44
2017-08-13 12:00:00 28.2 9 Este 21 Este 0 -- -- 44
2017-08-13 11:00:00 26.6 4 Nordeste 12 Este 0 -- -- 56
2017-08-13 10:00:00 24.9 4 Este 10 Sudeste 0 -- -- 66
2017-08-13 09:00:00 22.1 0 Calma 4 Este 0 -- -- 83
2017-08-13 08:00:00 17.4 3 Noroeste 4 Noroeste 0 -- -- 92
2017-08-13 07:00:00 16.3 4 Sudoeste 5 Sudoeste 0 -- -- 89
2017-08-13 06:00:00 16.7 2 Noroeste 4 Sudoeste 0 -- -- 88
2017-08-13 05:00:00 17.3 3 Oeste 4 Sudoeste 0 -- -- 88
2017-08-13 04:00:00 17.8 3 Sudoeste 4 Noroeste 0 -- -- 86
2017-08-13 03:00:00 18.4 4 Noroeste 5 Noroeste 0 -- -- 84
2017-08-13 02:00:00 19.6 4 Noroeste 7 Noroeste 0 -- -- 82
2017-08-13 01:00:00 20.8 3 Norte 6 Sur 0 -- -- 78
2017-08-13 00:00:00 22 3 Sur 8 Sudeste 0 -- -- 72
2017-08-12 23:00:00 23.4 5 Nordeste 11 Nordeste 0 -- -- 68
2017-08-12 22:00:00 23.9 3 Este 8 Sur 0 -- -- 66
2017-08-12 21:00:00 24.4 3 Sur 14 Sudoeste 0 -- -- 66
2017-08-12 20:00:00 25.6 7 Este 13 Este 0 -- -- 59
2017-08-12 19:00:00 25.9 5 Este 15 Nordeste 0 -- -- 57
2017-08-12 18:00:00 26.6 6 Este 19 Este 0 -- -- 55
2017-08-12 17:00:00 27 9 Este 24 Este 0 -- -- 53
2017-08-12 16:00:00 27.1 14 Este 27 Sudoeste 0 -- -- 52
2017-08-12 15:00:00 27.1 10 Sur 23 Sudeste 0 -- -- 51
2017-08-12 14:00:00 28.1 12 Sur 25 Sur 0 -- -- 47
2017-08-12 13:00:00 27.8 8 Sur 17 Sur 0 -- -- 44
2017-08-12 12:00:00 26.8 5 Sudoeste 14 Sur 0 -- -- 48
2017-08-12 11:00:00 24.5 4 Sudeste 14 Este 0 -- -- 58
2017-08-12 10:00:00 24.2 5 Este 12 Sudeste 0 -- -- 61
2017-08-12 09:00:00 22.4 4 Nordeste 11 Norte 0 -- -- 68
2017-08-12 08:00:00 19.2 3 Norte 6 Norte 0 -- -- 86
2017-08-12 07:00:00 18.2 5 Norte 7 Norte 0 -- -- 85
2017-08-12 06:00:00 19 4 Norte 9 Norte 0 -- -- 82
2017-08-12 05:00:00 19.8 5 Norte 9 Nordeste 0 -- -- 81
2017-08-12 04:00:00 20 6 Norte 10 Norte 0 -- -- 80
2017-08-12 03:00:00 20.9 5 Nordeste 12 Nordeste 0 -- -- 77
2017-08-12 02:00:00 20.6 6 Nordeste 11 Norte 0 -- -- 78
2017-08-12 01:00:00 21.2 4 Nordeste 10 Nordeste 0 -- -- 76
2017-08-12 00:00:00 21.4 5 Nordeste 10 Este 0 -- -- 75
2017-08-11 23:00:00 21.9 7 Nordeste 15 Nordeste 0 -- -- 70
2017-08-11 22:00:00 22.2 9 Nordeste 17 Nordeste 0 -- -- 66
2017-08-11 21:00:00 23 8 Nordeste 22 Este 0 -- -- 62
2017-08-11 20:00:00 24.9 13 Este 27 Este 0 -- -- 55
2017-08-11 19:00:00 25.9 15 Este 27 Nordeste 0 -- -- 52
2017-08-11 18:00:00 26.5 15 Este 29 Nordeste 0 -- -- 51
2017-08-11 17:00:00 28.3 18 Oeste 27 Oeste 0 -- -- 37
2017-08-11 16:00:00 27 10 Sudoeste 25 Sudoeste 0 -- -- 40
2017-08-11 15:00:00 26.2 12 Oeste 27 Noroeste 0 -- -- 46
2017-08-11 14:00:00 26.2 14 Sudoeste 27 Oeste 0 -- -- 43
2017-08-11 13:00:00 26.4 17 Oeste 28 Sudoeste 0 -- -- 43
2017-08-11 12:00:00 25.6 12 Oeste 23 Noroeste 0 -- -- 47
2017-08-11 11:00:00 24.5 10 Oeste 24 Noroeste 0 -- -- 50
2017-08-11 10:00:00 23.8 12 Noroeste 18 Oeste 0 -- -- 52
2017-08-11 09:00:00 22.4 8 Noroeste 12 Oeste 0 -- -- 64
2017-08-11 08:00:00 18.4 2 Sudoeste 6 Sudoeste 0 -- -- 85
2017-08-11 07:00:00 17.9 4 Sudoeste 10 Sudoeste 0 -- -- 86
2017-08-11 06:00:00 17.8 3 Noroeste 9 Sudoeste 0 -- -- 84
2017-08-11 05:00:00 17.5 8 Sudoeste 9 Sudoeste 0 -- -- 83
2017-08-11 04:00:00 17.9 5 Oeste 15 Oeste 0 -- -- 79
2017-08-11 03:00:00 17.4 5 Oeste 11 Oeste 0 -- -- 80
2017-08-11 02:00:00 17.4 8 Oeste 10 Oeste 0 -- -- 81
2017-08-11 01:00:00 17.8 6 Oeste 10 Oeste 0 -- -- 79
2017-08-11 00:00:00 18.6 6 Oeste 8 Oeste 0 -- -- 76
2017-08-10 23:00:00 19.5 5 Oeste 8 Oeste 0 -- -- 72
2017-08-10 22:00:00 20.8 5 Sur 15 Sur 0 -- -- 67
2017-08-10 21:00:00 22.2 13 Sur 22 Sudoeste 0 -- -- 61
2017-08-10 20:00:00 23.8 9 Sudeste 15 Sur 0 -- -- 55
2017-08-10 19:00:00 24.2 7 Sudeste 14 Este 0 -- -- 55
2017-08-10 18:00:00 24.7 8 Este 19 Este 0 -- -- 52
2017-08-10 17:00:00 25.4 12 Este 26 Este 0 -- -- 52
2017-08-10 16:00:00 24.3 16 Nordeste 31 Nordeste 0 -- -- 54
2017-08-10 15:00:00 24.8 13 Este 30 Este 0 -- -- 53
2017-08-10 14:00:00 23.9 17 Nordeste 30 Este 0 -- -- 59
2017-08-10 13:00:00 21.4 13 Este 23 Nordeste 0 -- -- 67
2017-08-10 12:00:00 20 9 Nordeste 25 Nordeste 0 -- -- 79
2017-08-10 11:00:00 19.5 14 Nordeste 26 Nordeste 0 -- -- 84
2017-08-10 10:00:00 19.2 13 Nordeste 27 Este 0 -- -- 87
2017-08-10 09:00:00 19 9 Este 33 Nordeste 3.8 -- -- 83
2017-08-10 08:00:00 19.2 13 Nordeste 32 Nordeste 0 -- -- 83
2017-08-10 07:00:00 18.9 18 Nordeste 35 Nordeste 0 -- -- 83
2017-08-10 06:00:00 18.8 19 Nordeste 40 Nordeste 0 -- -- 84
2017-08-10 05:00:00 18.8 16 Nordeste 38 Nordeste 0.4 -- -- 86
2017-08-10 04:00:00 19.1 15 Nordeste 41 Nordeste 1.8 -- -- 83
2017-08-10 03:00:00 21.4 22 Nordeste 45 Nordeste 0 -- -- 69
2017-08-10 02:00:00 22.1 25 Nordeste 46 Nordeste 0 -- -- 65
2017-08-10 01:00:00 22.7 23 Nordeste 37 Nordeste 0 -- -- 66
2017-08-10 00:00:00 23 18 Nordeste 34 Nordeste 0 -- -- 61
2017-08-09 23:00:00 23.4 19 Nordeste 33 Nordeste 0 -- -- 63
2017-08-09 22:00:00 23.7 17 Nordeste 28 Nordeste 0 -- -- 65
2017-08-09 21:00:00 24.3 13 Este 29 Este 0 -- -- 63
2017-08-09 20:00:00 25.7 14 Nordeste 30 Nordeste 0 -- -- 57
2017-08-09 19:00:00 25.5 20 Nordeste 34 Este 0 -- -- 59
2017-08-09 18:00:00 27.3 21 Nordeste 36 Nordeste 0 -- -- 55
2017-08-09 17:00:00 27.9 23 Nordeste 37 Este 0 -- -- 54
2017-08-09 16:00:00 28 19 Nordeste 39 Este 0 -- -- 54
2017-08-09 15:00:00 28.9 18 Este 33 Este 0 -- -- 51
2017-08-09 14:00:00 29.5 15 Nordeste 34 Este 0 -- -- 50
2017-08-09 13:00:00 29 14 Este 31 Este 0 -- -- 52
2017-08-09 12:00:00 28.1 14 Nordeste 28 Nordeste 0 -- -- 55
2017-08-09 11:00:00 27 15 Nordeste 31 Este 0 -- -- 57
2017-08-09 10:00:00 26.5 19 Este 29 Este 0 -- -- 59
2017-08-09 09:00:00 24.2 12 Nordeste 25 Este 0 -- -- 68
2017-08-09 08:00:00 22.8 10 Nordeste 17 Nordeste 0 -- -- 71
2017-08-09 07:00:00 21.8 10 Nordeste 21 Nordeste 0 -- -- 74
2017-08-09 06:00:00 22.3 16 Nordeste 27 Nordeste 0 -- -- 71
2017-08-09 05:00:00 22.7 17 Nordeste 31 Nordeste 0 -- -- 69
2017-08-09 04:00:00 22.9 15 Nordeste 27 Nordeste 0 -- -- 70
2017-08-09 03:00:00 23.2 13 Nordeste 28 Nordeste 0 -- -- 71
2017-08-09 02:00:00 23.5 17 Nordeste 33 Nordeste 0 -- -- 69
2017-08-09 01:00:00 23.8 21 Nordeste 35 Nordeste 0 -- -- 71
2017-08-09 00:00:00 24.2 23 Nordeste 37 Nordeste 0 -- -- 73
2017-08-08 23:00:00 24.3 21 Nordeste 46 Nordeste 0 -- -- 75
2017-08-08 22:00:00 24.5 18 Nordeste 37 Este 0 -- -- 76
2017-08-08 21:00:00 24.6 24 Nordeste 40 Nordeste 0 -- -- 78
2017-08-08 20:00:00 25.7 20 Nordeste 36 Nordeste 0 -- -- 77
2017-08-08 19:00:00 27.4 22 Nordeste 39 Nordeste 0 -- -- 71
2017-08-08 18:00:00 29.2 21 Nordeste 37 Nordeste 0 -- -- 67
2017-08-08 17:00:00 31.3 21 Nordeste 41 Este 0 -- -- 63
2017-08-08 16:00:00 33 20 Este 35 Este 0 -- -- 57
2017-08-08 15:00:00 34 17 Este 34 Este 0 -- -- 56
2017-08-08 14:00:00 34.7 17 Este 34 Este 0 -- -- 54
2017-08-08 13:00:00 32.9 4 Oeste 21 Oeste 0 -- -- 58
2017-08-08 12:00:00 31.9 12 Sudoeste 28 Sudoeste 0 -- -- 61
2017-08-08 11:00:00 30.8 15 Sudoeste 25 Sur 0 -- -- 63
2017-08-08 10:00:00 29.2 15 Sudoeste 24 Sudoeste 0 -- -- 70
2017-08-08 09:00:00 27.6 12 Oeste 19 Oeste 0 -- -- 77
2017-08-08 08:00:00 25.4 5 Oeste 12 Oeste 0 -- -- 83
2017-08-08 07:00:00 24.4 4 Sudoeste 13 Oeste 0 -- -- 81
2017-08-08 06:00:00 25.2 10 Oeste 19 Oeste 0 -- -- 80
2017-08-08 05:00:00 25.4 5 Oeste 18 Oeste 0 -- -- 77
2017-08-08 04:00:00 25 9 Oeste 14 Oeste 0 -- -- 82
2017-08-08 03:00:00 25.3 5 Oeste 12 Noroeste 0 -- -- 83
2017-08-08 02:00:00 24.8 5 Oeste 11 Oeste 0 -- -- 81
2017-08-08 01:00:00 25.2 5 Sudoeste 11 Oeste 0 -- -- 77
2017-08-08 00:00:00 25.5 8 Oeste 15 Sudoeste 0 -- -- 76
2017-08-07 23:00:00 26.1 8 Sudoeste 14 Sudoeste 0 -- -- 69
2017-08-07 22:00:00 27.3 7 Oeste 13 Oeste 0 -- -- 60
2017-08-07 21:00:00 28.6 9 Sudoeste 22 Sudoeste 0 -- -- 57
2017-08-07 20:00:00 30.5 16 Sudoeste 27 Sudoeste 0 -- -- 50
2017-08-07 19:00:00 32.2 19 Sudoeste 30 Sudoeste 0 -- -- 41
2017-08-07 18:00:00 32.9 19 Sudoeste 31 Oeste 0 -- -- 42
2017-08-07 17:00:00 33.8 21 Sudoeste 35 Sudoeste 0 -- -- 39
2017-08-07 16:00:00 34.4 18 Sudoeste 32 Sudoeste 0 -- -- 37
2017-08-07 15:00:00 34.6 17 Sudoeste 30 Sudoeste 0 -- -- 34
2017-08-07 14:00:00 33.9 13 Sudoeste 28 Sur 0 -- -- 39
2017-08-07 13:00:00 33.6 12 Sudoeste 25 Sudoeste 0 -- -- 39
2017-08-07 12:00:00 31.7 4 Este 15 Sudeste 0 -- -- 44
2017-08-07 11:00:00 30.1 4 Este 12 Sudeste 0 -- -- 51
2017-08-07 10:00:00 28.8 5 Este 15 Nordeste 0 -- -- 62
2017-08-07 09:00:00 26.4 10 Norte 15 Norte 0 -- -- 71
2017-08-07 08:00:00 23.2 2 Nordeste 9 Nordeste 0 -- -- 79
2017-08-07 07:00:00 21.7 6 Nordeste 10 Nordeste 0 -- -- 81
2017-08-07 06:00:00 20.6 5 Nordeste 7 Nordeste 0 -- -- 79
2017-08-07 05:00:00 20.8 4 Nordeste 5 Nordeste 0 -- -- 76
2017-08-07 04:00:00 20.9 0 Calma 5 Noroeste 0 -- -- 76
2017-08-07 03:00:00 21.5 2 Noroeste 3 Este 0 -- -- 77
2017-08-07 02:00:00 22.4 0 Calma 3 Nordeste 0 -- -- 75
2017-08-07 01:00:00 23.2 2 Nordeste 8 Nordeste 0 -- -- 74
2017-08-07 00:00:00 23.9 3 Nordeste 8 Nordeste 0 -- -- 74
2017-08-06 23:00:00 24.7 8 Nordeste 15 Nordeste 0 -- -- 72
2017-08-06 22:00:00 25.4 6 Nordeste 15 Nordeste 0 -- -- 70
2017-08-06 21:00:00 26.7 9 Este 21 Este 0 -- -- 66
2017-08-06 20:00:00 28.8 12 Nordeste 27 Este 0 -- -- 59
2017-08-06 19:00:00 29.9 17 Este 30 Este 0 -- -- 56
2017-08-06 18:00:00 31.4 17 Este 29 Nordeste 0 -- -- 53
2017-08-06 17:00:00 32.3 14 Nordeste 35 Este 0 -- -- 51
2017-08-06 16:00:00 32.4 16 Este 33 Este 0 -- -- 50
2017-08-06 15:00:00 31.4 21 Nordeste 35 Este 0 -- -- 50
2017-08-06 14:00:00 31.4 19 Este 35 Nordeste 0 -- -- 51
2017-08-06 13:00:00 31 20 Nordeste 40 Nordeste 0 -- -- 55
2017-08-06 12:00:00 30.3 22 Nordeste 38 Nordeste 0 -- -- 58
2017-08-06 11:00:00 28.7 26 Nordeste 42 Nordeste 0 -- -- 62
2017-08-06 10:00:00 28.1 22 Nordeste 37 Nordeste 0 -- -- 67
2017-08-06 09:00:00 27.1 22 Nordeste 39 Nordeste 0 -- -- 73
2017-08-06 08:00:00 26.2 15 Nordeste 42 Nordeste 0 -- -- 75
2017-08-06 07:00:00 25.8 12 Nordeste 21 Nordeste 0 -- -- 78
2017-08-06 06:00:00 26 11 Nordeste 16 Nordeste 0 -- -- 75
2017-08-06 05:00:00 25.7 10 Nordeste 16 Nordeste 0 -- -- 80
2017-08-06 04:00:00 25.4 5 Este 9 Este 0 -- -- 84
2017-08-06 03:00:00 25.9 3 Nordeste 9 Nordeste 0 -- -- 82
2017-08-06 02:00:00 26.4 6 Nordeste 17 Nordeste 0 -- -- 80
2017-08-06 01:00:00 26.7 4 Nordeste 13 Nordeste 0 -- -- 75
2017-08-06 00:00:00 27 4 Nordeste 8 Este 0 -- -- 71
2017-08-05 23:00:00 28 3 Nordeste 6 Este 0 -- -- 63
2017-08-05 22:00:00 29.1 4 Nordeste 9 Este 0 -- -- 58
2017-08-05 21:00:00 30.8 5 Nordeste 13 Este 0 -- -- 52
2017-08-05 20:00:00 34.2 4 Este 13 Este 0 -- -- 44
2017-08-05 19:00:00 35.2 5 Sudeste 18 Sudoeste 0 -- -- 42
2017-08-05 18:00:00 35.8 10 Oeste 38 Sur 0 -- -- 39
2017-08-05 17:00:00 36.9 9 Este 23 Nordeste 0 -- -- 36
2017-08-05 16:00:00 36.9 12 Nordeste 24 Este 0 -- -- 34
2017-08-05 15:00:00 36.1 12 Nordeste 26 Este 0 -- -- 34
2017-08-05 14:00:00 35.7 15 Nordeste 31 Este 0 -- -- 34
2017-08-05 13:00:00 34.6 18 Este 33 Este 0 -- -- 38
2017-08-05 12:00:00 34.2 17 Este 33 Este 0 -- -- 40
2017-08-05 11:00:00 32.7 15 Este 28 Este 0 -- -- 48
2017-08-05 10:00:00 31.3 12 Nordeste 29 Nordeste 0 -- -- 53
2017-08-05 09:00:00 29.7 12 Nordeste 21 Nordeste 0 -- -- 55
2017-08-05 08:00:00 24.6 2 Este 6 Nordeste 0 -- -- 73
2017-08-05 07:00:00 22 3 Nordeste 5 Nordeste 0 -- -- 79
2017-08-05 06:00:00 22.3 0 Calma 4 Sur 0 -- -- 75
2017-08-05 05:00:00 22.9 3 Norte 10 Norte 0 -- -- 72
2017-08-05 04:00:00 23.1 5 Noroeste 7 Noroeste 0 -- -- 85
2017-08-05 03:00:00 23.6 4 Noroeste 6 Noroeste 0 -- -- 84
2017-08-05 02:00:00 23.8 0 Calma 3 Norte 0 -- -- 78
2017-08-05 01:00:00 24.9 0 Calma 5 Sudeste 0 -- -- 75
2017-08-05 00:00:00 26 3 Sudeste 7 Nordeste 0 -- -- 70
2017-08-04 23:00:00 27.4 3 Nordeste 9 Nordeste 0 -- -- 67
2017-08-04 22:00:00 29.2 3 Nordeste 11 Nordeste 0 -- -- 63
2017-08-04 21:00:00 31.4 6 Nordeste 17 Este 0 -- -- 55
2017-08-04 20:00:00 33.7 9 Este 19 Este 0 -- -- 47
2017-08-04 19:00:00 35.3 9 Este 19 Este 0 -- -- 44
2017-08-04 18:00:00 35.1 13 Este 26 Este 0 -- -- 46
2017-08-04 17:00:00 36 12 Este 27 Este 0 -- -- 45
2017-08-04 16:00:00 35.7 17 Este 35 Este 0 -- -- 47
2017-08-04 15:00:00 36.1 11 Este 25 Este 0 -- -- 46
2017-08-04 14:00:00 36.1 17 Este 31 Nordeste 0 -- -- 49
2017-08-04 13:00:00 36.3 9 Este 18 Este 0 -- -- 42
2017-08-04 12:00:00 34.6 6 Nordeste 15 Este 0 -- -- 47
2017-08-04 11:00:00 32.5 6 Este 14 Nordeste 0 -- -- 57
2017-08-04 10:00:00 30 5 Sudeste 10 Sudeste 0 -- -- 66
2017-08-04 09:00:00 27.2 4 Este 6 Este 0 -- -- 79
2017-08-04 08:00:00 23 0 Calma 5 Noroeste 0 -- -- 76
2017-08-04 07:00:00 22.1 3 Norte 6 Noroeste 0 -- -- 83
2017-08-04 06:00:00 23.2 2 Noroeste 6 Noroeste 0 -- -- 85
2017-08-04 05:00:00 24.6 6 Noroeste 8 Noroeste 0 -- -- 90
2017-08-04 04:00:00 25.2 0 Calma 8 Sudoeste 0 -- -- 89
2017-08-04 03:00:00 25.6 3 Sudoeste 9 Oeste 0 -- -- 88
2017-08-04 02:00:00 26.4 8 Sudoeste 15 Sudoeste 0 -- -- 87
2017-08-04 01:00:00 26.6 6 Oeste 9 Oeste 0 -- -- 82
2017-08-04 00:00:00 27.4 5 Sur 11 Sudoeste 0 -- -- 78
2017-08-03 23:00:00 28.6 7 Oeste 12 Oeste 0 -- -- 71
2017-08-03 22:00:00 29.6 6 Oeste 13 Sudoeste 0 -- -- 61
2017-08-03 21:00:00 31.2 10 Sudoeste 17 Sudoeste 0 -- -- 54
2017-08-03 20:00:00 33.5 12 Sudoeste 22 Oeste 0 -- -- 47
2017-08-03 19:00:00 35.3 13 Oeste 27 Oeste 0 -- -- 40
2017-08-03 18:00:00 35.8 18 Sudoeste 32 Sudoeste 0 -- -- 41
2017-08-03 17:00:00 38.1 18 Oeste 30 Oeste 0 -- -- 39
2017-08-03 16:00:00 40.5 16 Sudeste 35 Este 0 -- -- 21
2017-08-03 15:00:00 40.1 14 Sudeste 32 Este 0 -- -- 20
2017-08-03 14:00:00 39.3 13 Este 32 Este 0 -- -- 24
2017-08-03 13:00:00 38.3 9 Sur 19 Sur 0 -- -- 29
2017-08-03 12:00:00 37.5 6 Nordeste 19 Norte 0 -- -- 33
2017-08-03 11:00:00 35.3 7 Este 18 Este 0 -- -- 41
2017-08-03 10:00:00 32.8 9 Este 14 Este 0 -- -- 49
2017-08-03 09:00:00 31.8 5 Norte 10 Este 0 -- -- 43
2017-08-03 08:00:00 27.8 3 Sudeste 6 Este 0 -- -- 49
2017-08-03 07:00:00 28.4 3 Norte 10 Este 0 -- -- 47
2017-08-03 06:00:00 30.1 8 Este 13 Este 0 -- -- 41
2017-08-03 05:00:00 31.7 9 Sudeste 26 Norte 0 -- -- 33
2017-08-03 04:00:00 34.3 13 Norte 49 Sudeste 0 -- -- 27
2017-08-03 03:00:00 33.2 9 Sudeste 59 Sudeste 0 -- -- 28
2017-08-03 02:00:00 33 7 Oeste 54 Noroeste 0 -- -- 32
2017-08-03 01:00:00 31.3 13 Oeste 24 Oeste 0 -- -- 48
2017-08-03 00:00:00 29.9 4 Este 16 Nordeste 0 -- -- 56
2017-08-02 23:00:00 30.3 6 Este 14 Nordeste 0 -- -- 55
2017-08-02 22:00:00 31.2 9 Nordeste 21 Nordeste 0 -- -- 50
2017-08-02 21:00:00 32.1 9 Este 18 Este 0 -- -- 52
2017-08-02 20:00:00 34.1 11 Este 15 Este 0 -- -- 49
2017-08-02 19:00:00 36.6 10 Nordeste 22 Este 0 -- -- 34
2017-08-02 18:00:00 39.2 15 Este 25 Este 0 -- -- 30
2017-08-02 17:00:00 39.3 11 Nordeste 24 Nordeste 0 -- -- 30
2017-08-02 16:00:00 39.6 12 Nordeste 24 Nordeste 0 -- -- 31
2017-08-02 15:00:00 38.6 8 Este 23 Nordeste 0 -- -- 33
2017-08-02 14:00:00 37.9 9 Este 24 Este 0 -- -- 35
2017-08-02 13:00:00 37.3 13 Este 26 Este 0 -- -- 37
2017-08-02 12:00:00 35.2 17 Este 33 Este 0 -- -- 41
2017-08-02 11:00:00 36.6 13 Este 21 Este 0 -- -- 37
2017-08-02 10:00:00 34.1 6 Sudoeste 12 Oeste 0 -- -- 41
2017-08-02 09:00:00 30.4 7 Noroeste 13 Oeste 0 -- -- 50
2017-08-02 08:00:00 27.4 6 Sudoeste 13 Oeste 0 -- -- 64
2017-08-02 07:00:00 27.6 8 Oeste 22 Oeste 0 -- -- 61
2017-08-02 06:00:00 26.6 8 Oeste 14 Sudoeste 0 -- -- 54
2017-08-02 05:00:00 26.1 5 Sudeste 11 Sur 0 -- -- 60
2017-08-02 04:00:00 25.7 9 Sudoeste 12 Sudoeste 0 -- -- 64
2017-08-02 03:00:00 26.5 4 Nordeste 8 Norte 0 -- -- 60
2017-08-02 02:00:00 26.5 4 Norte 8 Sudeste 0 -- -- 67
2017-08-02 01:00:00 27.6 0 Calma 7 Norte 0 -- -- 71
2017-08-02 00:00:00 27.9 3 Nordeste 12 Sur 0 -- -- 64
2017-08-01 23:00:00 29.3 0 Calma 19 Nordeste 0 -- -- 56
2017-08-01 22:00:00 30 8 Nordeste 28 Nordeste 0.2 -- -- 51
2017-08-01 21:00:00 34.2 17 Nordeste 33 Nordeste 0 -- -- 28
2017-08-01 20:00:00 35.3 17 Nordeste 28 Nordeste 0 -- -- 28
2017-08-01 19:00:00 36.3 11 Este 27 Este 0 -- -- 38
2017-08-01 18:00:00 35.9 12 Este 28 Nordeste 0 -- -- 50
2017-08-01 17:00:00 35.9 10 Este 16 Nordeste -- -- -- 39
2017-08-01 16:00:00 35.3 10 Noroeste 28 Oeste 0 -- -- 45
2017-08-01 15:00:00 33.5 21 Sudoeste 48 Sudoeste 0 -- -- 58
2017-08-01 14:00:00 36.5 6 Este 19 Nordeste 0 -- -- 45
2017-08-01 13:00:00 35.1 9 Nordeste 18 Nordeste 0 -- -- 50
2017-08-01 12:00:00 34.7 7 Este 16 Este 0 -- -- 47
2017-08-01 11:00:00 31.9 9 Sudeste 16 Sudeste 0 -- -- 62
2017-08-01 10:00:00 30.4 3 Noroeste 19 Sudoeste 0 -- -- 67
2017-08-01 09:00:00 28.1 10 Sudoeste 22 Oeste 0 -- -- 76
2017-08-01 08:00:00 27.4 9 Oeste 22 Oeste 0 -- -- 69
2017-08-01 07:00:00 28.5 8 Sudoeste 24 Sudoeste 0 -- -- 61
2017-08-01 06:00:00 28.5 7 Sur 37 Oeste 0 -- -- 57
2017-08-01 05:00:00 25.8 5 Sudeste 12 Noroeste 0 -- -- 68
2017-08-01 04:00:00 26.3 2 Oeste 14 Sur 0 -- -- 68
2017-08-01 03:00:00 27.6 4 Sudoeste 22 Sudoeste 0 -- -- 58
2017-08-01 02:00:00 25.9 5 Sudoeste 12 Sudoeste 0 -- -- 69
2017-08-01 01:00:00 27 0 Calma 11 Noroeste 0 -- -- 63
2017-08-01 00:00:00 28.1 6 Noroeste 17 Este 0 -- -- 62
2017-07-31 23:00:00 28.6 10 Sudoeste 17 Oeste 0 -- -- 66
2017-07-31 22:00:00 29.1 4 Sudeste 8 Sur 0 -- -- 61
2017-07-31 21:00:00 31.2 4 Sudoeste 13 Sudoeste 0 -- -- 50
2017-07-31 20:00:00 32.9 9 Oeste 19 Oeste 0 -- -- 46
2017-07-31 19:00:00 35.2 14 Oeste 27 Este 0 -- -- 44
2017-07-31 18:00:00 37.5 6 Sudoeste 20 Sudeste 0 -- -- 37
2017-07-31 17:00:00 38.5 9 Sur 22 Sudoeste 0 -- -- 37
2017-07-31 16:00:00 38.1 12 Sudoeste 21 Sur 0 -- -- 40
2017-07-31 15:00:00 38 8 Sur 29 Este 0 -- -- 37
2017-07-31 14:00:00 36.8 7 Este 19 Este 0 -- -- 40
2017-07-31 13:00:00 34.2 5 Norte 13 Este 0 -- -- 50
2017-07-31 12:00:00 32.5 8 Este 20 Este 0 -- -- 51
2017-07-31 11:00:00 30.4 13 Este 23 Este 0 -- -- 64
2017-07-31 10:00:00 28.7 9 Este 19 Este 0 -- -- 75
2017-07-31 09:00:00 25.8 6 Este 15 Este 0 -- -- 88
2017-07-31 08:00:00 23.3 3 Este 7 Nordeste 0 -- -- 86
2017-07-31 07:00:00 22.5 3 Norte 5 Norte 0 -- -- 85
2017-07-31 06:00:00 22.7 4 Norte 6 Norte 0 -- -- 85
2017-07-31 05:00:00 21.3 2 Nordeste 6 Noroeste 0 -- -- 82
2017-07-31 04:00:00 21.6 4 Oeste 6 Sudoeste 0 -- -- 81
2017-07-31 03:00:00 23.1 4 Nordeste 7 Nordeste 0 -- -- 82
2017-07-31 02:00:00 23.3 6 Norte 8 Norte 0 -- -- 73
2017-07-31 01:00:00 24 3 Noroeste 5 Noroeste 0 -- -- 73
2017-07-31 00:00:00 25.4 4 Norte 5 Noroeste 0 -- -- 71
2017-07-30 23:00:00 26.6 2 Nordeste 6 Nordeste 0 -- -- 65
2017-07-30 22:00:00 28.6 2 Este 8 Este 0 -- -- 61
2017-07-30 21:00:00 31.3 7 Nordeste 17 Nordeste 0 -- -- 50
2017-07-30 20:00:00 33.9 12 Nordeste 23 Este 0 -- -- 49
2017-07-30 19:00:00 35.7 7 Sudoeste 15 Sudoeste 0 -- -- 46
2017-07-30 18:00:00 35.5 11 Oeste 27 Sudoeste 0 -- -- 47
2017-07-30 17:00:00 37 15 Sudoeste 27 Oeste 0 -- -- 40
2017-07-30 16:00:00 38.9 14 Sudoeste 23 Sudoeste 0 -- -- 30
2017-07-30 15:00:00 38.5 13 Sudoeste 23 Sur 0 -- -- 28
2017-07-30 14:00:00 38.4 11 Sudoeste 22 Sur 0 -- -- 25
2017-07-30 13:00:00 38.1 4 Nordeste 15 Sur 0 -- -- 22
2017-07-30 12:00:00 36.4 4 Este 12 Sur 0 -- -- 22
2017-07-30 11:00:00 34.3 3 Sur 8 Nordeste 0 -- -- 23
2017-07-30 10:00:00 31.1 4 Sudeste 7 Sur 0 -- -- 33
2017-07-30 09:00:00 26.4 0 Calma 4 Noroeste 0 -- -- 38
2017-07-30 08:00:00 21.6 4 Noroeste 9 Noroeste 0 -- -- 54
2017-07-30 07:00:00 18.7 3 Sudoeste 6 Sur 0 -- -- 67
2017-07-30 06:00:00 18.6 5 Sudoeste 7 Sudoeste 0 -- -- 67
2017-07-30 05:00:00 19.1 4 Sudoeste 6 Sudoeste 0 -- -- 70
2017-07-30 04:00:00 19.7 5 Sudoeste 8 Sudoeste 0 -- -- 72
2017-07-30 03:00:00 20.5 5 Sudoeste 8 Sudoeste 0 -- -- 72
2017-07-30 02:00:00 21.6 0 Calma 6 Oeste 0 -- -- 73
2017-07-30 01:00:00 22.7 3 Noroeste 6 Noroeste 0 -- -- 70
2017-07-30 00:00:00 24.3 3 Oeste 9 Sur 0 -- -- 69
2017-07-29 23:00:00 26 5 Sur 11 Sur 0 -- -- 61
2017-07-29 22:00:00 27.6 7 Sudeste 11 Sudeste 0 -- -- 53
2017-07-29 21:00:00 30.8 6 Sudoeste 16 Oeste 0 -- -- 38
2017-07-29 20:00:00 32.9 9 Oeste 19 Oeste 0 -- -- 34
2017-07-29 19:00:00 33.7 15 Oeste 27 Oeste 0 -- -- 33
2017-07-29 18:00:00 34.2 21 Oeste 31 Oeste 0 -- -- 30
2017-07-29 17:00:00 35.8 20 Oeste 31 Oeste 0 -- -- 28
2017-07-29 16:00:00 36.5 14 Oeste 25 Oeste 0 -- -- 30
2017-07-29 15:00:00 36.1 15 Sudoeste 31 Sudoeste 0 -- -- 30
2017-07-29 14:00:00 36 15 Sudoeste 27 Sudeste 0 -- -- 33
2017-07-29 13:00:00 35.4 8 Sur 24 Sudeste 0 -- -- 32
2017-07-29 12:00:00 33.9 9 Sudeste 18 Sudeste 0 -- -- 30
2017-07-29 11:00:00 31.8 3 Noroeste 8 Nordeste 0 -- -- 33
2017-07-29 10:00:00 29.3 3 Este 8 Nordeste 0 -- -- 48
2017-07-29 09:00:00 26.4 4 Este 8 Este 0 -- -- 66
2017-07-29 08:00:00 20.8 0 Calma 6 Norte 0 -- -- 67
2017-07-29 07:00:00 18.6 2 Norte 5 Norte 0 -- -- 75
2017-07-29 06:00:00 18.8 4 Noroeste 7 Noroeste 0 -- -- 73
2017-07-29 05:00:00 19.3 4 Sudoeste 5 Sudoeste 0 -- -- 71
2017-07-29 04:00:00 20.1 0 Calma 6 Noroeste 0 -- -- 69
2017-07-29 03:00:00 20.5 5 Noroeste 6 Noroeste 0 -- -- 68
2017-07-29 02:00:00 21.5 5 Noroeste 7 Noroeste 0 -- -- 66
2017-07-29 01:00:00 22.4 5 Noroeste 6 Noroeste 0 -- -- 62
2017-07-29 00:00:00 23.5 4 Noroeste 7 Noroeste 0 -- -- 64
2017-07-28 23:00:00 25.2 4 Sur 8 Sudoeste 0 -- -- 58
2017-07-28 22:00:00 27.4 7 Oeste 17 Oeste 0 -- -- 50
2017-07-28 21:00:00 29.1 10 Oeste 21 Oeste 0 -- -- 47
2017-07-28 20:00:00 31.7 15 Oeste 24 Sudoeste 0 -- -- 42
2017-07-28 19:00:00 33.5 17 Sudoeste 26 Oeste 0 -- -- 34
2017-07-28 18:00:00 34.8 15 Sudoeste 27 Oeste 0 -- -- 29
2017-07-28 17:00:00 35.2 17 Oeste 30 Oeste 0 -- -- 29
2017-07-28 16:00:00 36 15 Sudoeste 27 Oeste 0 -- -- 26
2017-07-28 15:00:00 35.5 15 Oeste 28 Sudoeste 0 -- -- 26
2017-07-28 14:00:00 35.4 12 Sur 31 Sudoeste 0 -- -- 27
2017-07-28 13:00:00 34.2 8 Sur 21 Sudoeste 0 -- -- 32
2017-07-28 12:00:00 32.6 6 Sur 18 Sudoeste 0 -- -- 38
2017-07-28 11:00:00 31.2 9 Sudoeste 19 Sur 0 -- -- 38
2017-07-28 10:00:00 29.2 7 Sudoeste 12 Sudoeste 0 -- -- 40
2017-07-28 09:00:00 25.9 5 Sudoeste 9 Sudoeste 0 -- -- 63
2017-07-28 08:00:00 21.3 4 Oeste 9 Oeste 0 -- -- 90
2017-07-28 07:00:00 18.9 3 Sudoeste 6 Noroeste 0 -- -- 90
2017-07-28 06:00:00 19.1 3 Noroeste 6 Oeste 0 -- -- 89
2017-07-28 05:00:00 19.6 5 Oeste 9 Oeste -- -- -- 89
2017-07-28 04:00:00 20.2 4 Oeste 7 Oeste 0 -- -- 89
2017-07-28 03:00:00 21.1 6 Oeste 8 Oeste 0 -- -- 90
2017-07-28 02:00:00 21.6 4 Oeste 7 Noroeste 0 -- -- 89
2017-07-28 01:00:00 22.5 4 Oeste 14 Sudoeste 0 -- -- 87
2017-07-28 00:00:00 23.3 10 Sudoeste 15 Sudoeste 0 -- -- 86
2017-07-27 23:00:00 23.9 12 Sudoeste 21 Sudoeste 0 -- -- 83
2017-07-27 22:00:00 24.8 11 Oeste 18 Oeste 0 -- -- 77
2017-07-27 21:00:00 26.1 10 Sudoeste 22 Sudoeste 0 -- -- 66
2017-07-27 20:00:00 27.9 18 Sudoeste 27 Sudoeste 0 -- -- 57
2017-07-27 19:00:00 29.6 18 Sudoeste 31 Sudoeste 0 -- -- 50
2017-07-27 18:00:00 30.1 21 Sudoeste 45 Sudoeste 0 -- -- 52
2017-07-27 17:00:00 30.7 25 Sudoeste 37 Sudoeste 0 -- -- 48
2017-07-27 16:00:00 31.4 24 Sudoeste 35 Sudoeste 0 -- -- 49
2017-07-27 15:00:00 30.5 21 Sudoeste 38 Sudoeste 0 -- -- 53
2017-07-27 14:00:00 29.9 23 Sudoeste 37 Oeste 0 -- -- 55
2017-07-27 13:00:00 30.5 24 Sudoeste 36 Sur 0 -- -- 47
2017-07-27 12:00:00 30.6 18 Sudoeste 34 Sudoeste 0 -- -- 36
2017-07-27 11:00:00 28.5 10 Sudoeste 19 Sudoeste 0 -- -- 48
2017-07-27 10:00:00 26.1 9 Sudoeste 15 Sudoeste 0 -- -- 61
2017-07-27 09:00:00 23.6 6 Sudoeste 9 Oeste 0 -- -- 72
2017-07-27 08:00:00 19.5 2 Oeste 6 Oeste 0 -- -- 88
2017-07-27 07:00:00 17.3 3 Oeste 9 Sudoeste 0 -- -- 89
2017-07-27 06:00:00 17.4 4 Sudoeste 6 Sudoeste 0 -- -- 87
2017-07-27 05:00:00 18 2 Noroeste 6 Noroeste 0 -- -- 87
2017-07-27 04:00:00 18.6 3 Noroeste 6 Noroeste 0 -- -- 87
2017-07-27 03:00:00 18.8 2 Noroeste 8 Noroeste 0 -- -- 86
2017-07-27 02:00:00 19.2 4 Noroeste 7 Norte 0 -- -- 84
2017-07-27 01:00:00 19.8 5 Noroeste 7 Noroeste 0 -- -- 82
2017-07-27 00:00:00 20.9 0 Calma 5 Este 0 -- -- 79
2017-07-26 23:00:00 22.1 3 Este 7 Nordeste 0 -- -- 75
2017-07-26 22:00:00 23.3 5 Nordeste 14 Este 0 -- -- 72
2017-07-26 21:00:00 24.9 7 Este 18 Este 0 -- -- 66
2017-07-26 20:00:00 26.4 9 Este 24 Este 0 -- -- 60
2017-07-26 19:00:00 27.2 15 Este 29 Este 0 -- -- 59
2017-07-26 18:00:00 27.7 10 Nordeste 22 Este 0 -- -- 57
2017-07-26 17:00:00 28.1 12 Nordeste 27 Este 0 -- -- 57
2017-07-26 16:00:00 27.6 10 Este 20 Este 0 -- -- 59
2017-07-26 15:00:00 29.7 6 Noroeste 32 Sudoeste 0 -- -- 54
2017-07-26 14:00:00 28 16 Sudoeste 31 Sudoeste 0 -- -- 58
2017-07-26 13:00:00 27.7 13 Sudoeste 32 Sur 0 -- -- 57
2017-07-26 12:00:00 27.5 17 Sudoeste 28 Sur 0 -- -- 60
2017-07-26 11:00:00 26.8 13 Sur 23 Sudoeste 0 -- -- 62
2017-07-26 10:00:00 25.2 13 Sur 21 Sur 0 -- -- 68
2017-07-26 09:00:00 24.4 11 Sudoeste 18 Sudoeste 0 -- -- 69
2017-07-26 08:00:00 22.5 5 Oeste 7 Oeste 0 -- -- 75
2017-07-26 07:00:00 20.8 0 Calma 6 Noroeste 0 -- -- 79
2017-07-26 06:00:00 20.2 4 Oeste 9 Oeste 0 -- -- 79
2017-07-26 05:00:00 19.9 6 Oeste 8 Oeste 0 -- -- 78
2017-07-26 04:00:00 20.3 4 Oeste 8 Oeste 0 -- -- 74
2017-07-26 03:00:00 21.1 5 Oeste 8 Oeste 0 -- -- 73
2017-07-26 02:00:00 21.5 5 Oeste 6 Noroeste 0 -- -- 71
2017-07-26 01:00:00 21.6 4 Oeste 8 Oeste 0 -- -- 70
2017-07-26 00:00:00 22.2 3 Sudoeste 7 Sur 0 -- -- 68
2017-07-25 23:00:00 22.8 4 Sur 7 Sudeste 0 -- -- 66
2017-07-25 22:00:00 23.3 4 Nordeste 14 Nordeste 0 -- -- 65
2017-07-25 21:00:00 24.1 11 Nordeste 20 Nordeste 0 -- -- 61
2017-07-25 20:00:00 25.6 8 Este 18 Este 0 -- -- 55
2017-07-25 19:00:00 27 7 Este 19 Nordeste 0 -- -- 50
2017-07-25 18:00:00 25.9 9 Este 18 Este 0 -- -- 54
2017-07-25 17:00:00 26.7 7 Este 23 Nordeste 0 -- -- 51
2017-07-25 16:00:00 26.7 14 Este 24 Sudeste 0 -- -- 51
2017-07-25 15:00:00 27.5 12 Nordeste 28 Nordeste 0 -- -- 50
2017-07-25 14:00:00 27.4 14 Nordeste 34 Nordeste 0 -- -- 51
2017-07-25 13:00:00 27 12 Nordeste 35 Nordeste 0 -- -- 53
2017-07-25 12:00:00 26.5 13 Este 29 Este 0 -- -- 56
2017-07-25 11:00:00 26.3 13 Este 23 Este 0 -- -- 58
2017-07-25 10:00:00 25 9 Este 21 Nordeste 0 -- -- 64
2017-07-25 09:00:00 24.4 8 Nordeste 14 Este 0 -- -- 67
2017-07-25 08:00:00 22.6 6 Este 14 Nordeste 0 -- -- 77
2017-07-25 07:00:00 22.2 4 Nordeste 17 Nordeste 0 -- -- 81
2017-07-25 06:00:00 21.7 8 Nordeste 16 Este 0 -- -- 89
2017-07-25 05:00:00 20.9 3 Nordeste 8 Sudeste 0 -- -- 89
2017-07-25 04:00:00 21.3 3 Sudoeste 9 Nordeste 0 -- -- 85
2017-07-25 03:00:00 22 4 Norte 12 Norte 0 -- -- 84
2017-07-25 02:00:00 21.7 3 Este 10 Noroeste 0 -- -- 76
2017-07-25 01:00:00 22.2 3 Norte 10 Sudoeste 0 -- -- 73
2017-07-25 00:00:00 22.2 2 Este 8 Noroeste 0 -- -- 66
2017-07-24 23:00:00 23.8 3 Nordeste 8 Nordeste 0 -- -- 61
2017-07-24 22:00:00 25.4 4 Sur 11 Este 0 -- -- 55
2017-07-24 21:00:00 28.3 6 Este 26 Oeste 0 -- -- 48
2017-07-24 20:00:00 30.3 13 Noroeste 26 Noroeste 0 -- -- 35
2017-07-24 19:00:00 31.7 12 Noroeste 25 Noroeste 0 -- -- 28
2017-07-24 18:00:00 32.3 17 Noroeste 26 Noroeste 0 -- -- 31
2017-07-24 17:00:00 32.4 10 Este 23 Este 0 -- -- 47
2017-07-24 16:00:00 31.9 9 Nordeste 22 Nordeste 0 -- -- 47
2017-07-24 15:00:00 30.8 16 Nordeste 31 Este 0 -- -- 54
2017-07-24 14:00:00 30.5 14 Este 22 Este 0 -- -- 57
2017-07-24 13:00:00 29.9 12 Oeste 19 Sudoeste 0 -- -- 57
2017-07-24 12:00:00 29.5 6 Sur 14 Sur 0 -- -- 57
2017-07-24 11:00:00 28 5 Sudoeste 14 Sur 0 -- -- 64
2017-07-24 10:00:00 26.5 5 Sur 12 Este 0 -- -- 73
2017-07-24 09:00:00 25.2 5 Este 10 Este 0 -- -- 82
2017-07-24 08:00:00 22 0 Calma 3 Sudoeste 0 -- -- 92
2017-07-24 07:00:00 20.9 3 Oeste 7 Oeste 0 -- -- 91
2017-07-24 06:00:00 21.3 0 Calma 5 Norte 0 -- -- 90
2017-07-24 05:00:00 22.5 3 Sudoeste 5 Sudeste 0 -- -- 89
2017-07-24 04:00:00 22.9 2 Este 5 Norte 0 -- -- 90
2017-07-24 03:00:00 23.2 4 Nordeste 6 Este 0 -- -- 89
2017-07-24 02:00:00 23 0 Calma 5 Este 0 -- -- 88
2017-07-24 01:00:00 23.4 3 Oeste 6 Noroeste 0 -- -- 87
2017-07-24 00:00:00 24.1 4 Oeste 9 Norte 0 -- -- 87
2017-07-23 23:00:00 24.4 5 Norte 7 Este 0 -- -- 85
2017-07-23 22:00:00 25.2 6 Este 25 Este 0 -- -- 83
2017-07-23 21:00:00 27 10 Sudeste 23 Este 0 -- -- 74
2017-07-23 20:00:00 28.8 7 Este 23 Sur 0 -- -- 65
2017-07-23 19:00:00 30.1 9 Oeste 21 Sudoeste 0 -- -- 63
2017-07-23 18:00:00 30.1 7 Sur 16 Sur 0 -- -- 60
2017-07-23 17:00:00 30.2 8 Este 15 Este 0 -- -- 57
2017-07-23 16:00:00 30.2 5 Noroeste 17 Nordeste 0 -- -- 56
2017-07-23 15:00:00 29.8 8 Este 27 Este 0 -- -- 58
2017-07-23 14:00:00 28.8 10 Este 22 Sudeste 0 -- -- 63
2017-07-23 13:00:00 28.2 10 Este 27 Este 0 -- -- 67
2017-07-23 12:00:00 28.8 4 Este 26 Nordeste 0 -- -- 67
2017-07-23 11:00:00 28 17 Este 32 Este 0 -- -- 71
2017-07-23 10:00:00 27.2 15 Nordeste 25 Nordeste 0 -- -- 76
2017-07-23 09:00:00 24.7 4 Norte 8 Norte 0 -- -- 85
2017-07-23 08:00:00 22 2 Noroeste 5 Noroeste 0 -- -- 90
2017-07-23 07:00:00 20.2 2 Noroeste 12 Noroeste 0 -- -- 90
2017-07-23 06:00:00 20.1 4 Sur 13 Sudeste 0 -- -- 86
2017-07-23 05:00:00 19.4 7 Norte 13 Noroeste 0 -- -- 85
2017-07-23 04:00:00 19.8 4 Sur 10 Norte 0 -- -- 83
2017-07-23 03:00:00 21.1 2 Noroeste 6 Noroeste 0 -- -- 86
2017-07-23 02:00:00 22.3 3 Norte 7 Noroeste 0 -- -- 87
2017-07-23 01:00:00 23.3 5 Sudoeste 10 Sudoeste 0 -- -- 85
2017-07-23 00:00:00 24.6 5 Oeste 12 Oeste 0 -- -- 82
2017-07-22 23:00:00 25.2 8 Oeste 19 Oeste 0 -- -- 81
2017-07-22 22:00:00 25.8 10 Oeste 21 Sudoeste 0 -- -- 76
2017-07-22 21:00:00 26.6 13 Oeste 22 Sudoeste 0 -- -- 72
2017-07-22 20:00:00 28.5 14 Sudoeste 22 Oeste 0 -- -- 65
2017-07-22 19:00:00 29.9 15 Sudoeste 26 Oeste 0 -- -- 59
2017-07-22 18:00:00 30.6 17 Oeste 28 Oeste 0 -- -- 58
2017-07-22 17:00:00 31.1 21 Oeste 31 Oeste 0 -- -- 57
2017-07-22 16:00:00 32.3 18 Sudoeste 31 Oeste 0 -- -- 56
2017-07-22 15:00:00 32.3 18 Sudoeste 28 Sur 0 -- -- 57
2017-07-22 14:00:00 32.5 10 Sur 24 Sudoeste 0 -- -- 54
2017-07-22 13:00:00 32 8 Nordeste 24 Este 0 -- -- 50
2017-07-22 12:00:00 30.6 7 Sudeste 17 Este 0 -- -- 56
2017-07-22 11:00:00 29.3 9 Este 18 Este 0 -- -- 64
2017-07-22 10:00:00 27.9 5 Este 13 Este 0 -- -- 73
2017-07-22 09:00:00 25.7 4 Este 9 Noroeste 0 -- -- 82
2017-07-22 08:00:00 22.8 3 Sudeste 9 Norte 0 -- -- 91
2017-07-22 07:00:00 21.4 0 Calma 4 Nordeste 0 -- -- 90
2017-07-22 06:00:00 22.3 5 Norte 10 Norte 0 -- -- 91
2017-07-22 05:00:00 23.1 4 Sudoeste 9 Sudoeste 0 -- -- 90
2017-07-22 04:00:00 23.4 3 Noroeste 8 Sudoeste 0 -- -- 89
2017-07-22 03:00:00 24.3 5 Sudoeste 11 Sudoeste 0 -- -- 87
2017-07-22 02:00:00 24.7 6 Sudoeste 10 Sudoeste 0 -- -- 86
2017-07-22 01:00:00 24.9 3 Sudoeste 4 Sudoeste 0 -- -- 83
2017-07-22 00:00:00 25 0 Calma 15 Sudeste 0 -- -- 81